Time;durP1;ratioP1;P1;durP2;ratioP2;P2;SDS_P1;SDS_P2;PMS_P1;PMS_P2;Temp;Humidity;BMP_temperature;BMP_pressure;BME280_temperature;BME280_humidity;BME280_pressure;Samples;Min_cycle;Max_cycle;Signal;HPM_P1;HPM_P2
2022/03/08 00:02:22;;;;;;;;;;;17.90;99.90;;;;;;5041396;28;19929;-61
2022/03/08 00:04:50;;;;;;;;;;;17.90;99.90;;;;;;5036911;28;20443;-61
2022/03/08 00:07:17;;;;;;;;;;;18.00;99.90;;;;;;5068396;28;20612;-63
2022/03/08 00:09:44;;;;;;;;;;;18.00;99.90;;;;;;5042193;28;19929;-60
2022/03/08 00:12:11;;;;;;;;;;;18.00;99.90;;;;;;5043952;28;19959;-62
2022/03/08 00:14:38;;;;;;;;;;;18.00;99.90;;;;;;5044942;28;19925;-65
2022/03/08 00:17:05;;;;;;;;;;;18.00;99.90;;;;;;5046217;28;19933;-64
2022/03/08 00:19:32;;;;;;;;;;;18.00;99.90;;;;;;5034296;28;20032;-63
2022/03/08 00:22:00;;;;;;;;;;;18.00;99.90;;;;;;5051354;28;19995;-63
2022/03/08 00:24:27;;;;;;;;;;;18.00;99.90;;;;;;5046298;28;19925;-64
2022/03/08 00:26:54;;;;;;;;;;;18.00;99.90;;;;;;5046275;28;20330;-61
2022/03/08 00:29:21;;;;;;;;;;;18.00;99.90;;;;;;5044443;28;19932;-65
2022/03/08 00:31:48;;;;;;;;;;;18.00;99.90;;;;;;5042113;28;19952;-63
2022/03/08 00:34:16;;;;;;;;;;;17.90;99.90;;;;;;5042232;28;19933;-63
2022/03/08 00:36:43;;;;;;;;;;;17.90;99.90;;;;;;5038822;28;19944;-61
2022/03/08 00:39:12;;;;;;;;;;;17.90;99.90;;;;;;5041388;28;20415;-62
2022/03/08 00:41:39;;;;;;;;;;;17.90;99.90;;;;;;5043660;28;19929;-64
2022/03/08 00:44:07;;;;;;;;;;;17.80;99.90;;;;;;5030410;28;19931;-62
2022/03/08 00:46:35;;;;;;;;;;;17.80;99.90;;;;;;5037419;28;19929;-62
2022/03/08 00:49:02;;;;;;;;;;;17.70;99.90;;;;;;5029234;28;19928;-62
2022/03/08 00:51:29;;;;;;;;;;;17.70;99.90;;;;;;5040227;28;19925;-62
2022/03/08 00:53:57;;;;;;;;;;;17.70;99.90;;;;;;5044182;28;20003;-64
2022/03/08 00:56:24;;;;;;;;;;;17.70;99.90;;;;;;5046795;28;20478;-61
2022/03/08 00:58:52;;;;;;;;;;;17.70;99.90;;;;;;5036472;28;19944;-61
2022/03/08 01:01:19;;;;;;;;;;;17.60;99.90;;;;;;5034861;28;19924;-64
2022/03/08 01:03:46;;;;;;;;;;;17.70;99.90;;;;;;5038079;28;19940;-63
2022/03/08 01:06:13;;;;;;;;;;;17.70;99.90;;;;;;5045193;28;20388;-63
2022/03/08 01:08:41;;;;;;;;;;;17.60;99.90;;;;;;5047169;28;19929;-63
2022/03/08 01:11:08;;;;;;;;;;;17.60;99.90;;;;;;5041519;28;19929;-65
2022/03/08 01:13:35;;;;;;;;;;;17.60;99.90;;;;;;5033780;28;19940;-64
2022/03/08 01:16:02;;;;;;;;;;;17.60;99.90;;;;;;5041514;28;20325;-65
2022/03/08 01:18:30;;;;;;;;;;;17.60;99.90;;;;;;5031704;28;19936;-65
2022/03/08 01:20:58;;;;;;;;;;;17.60;99.90;;;;;;5038655;28;20372;-63
2022/03/08 01:23:25;;;;;;;;;;;17.60;99.90;;;;;;5042404;28;19951;-64
2022/03/08 01:25:52;;;;;;;;;;;17.60;99.90;;;;;;5048966;28;19936;-63
2022/03/08 01:28:21;;;;;;;;;;;17.60;99.90;;;;;;5040754;28;19926;-62
2022/03/08 01:30:50;;;;;;;;;;;17.60;99.90;;;;;;5032664;28;19929;-62
2022/03/08 01:33:17;;;;;;;;;;;17.50;99.90;;;;;;5035754;28;19953;-64
2022/03/08 01:35:44;;;;;;;;;;;17.60;99.90;;;;;;5050728;28;19955;-64
2022/03/08 01:38:11;;;;;;;;;;;17.50;99.90;;;;;;5044942;28;19944;-63
2022/03/08 01:40:38;;;;;;;;;;;17.60;99.90;;;;;;5047606;28;19939;-62
2022/03/08 01:43:05;;;;;;;;;;;17.60;99.90;;;;;;5043727;28;19929;-63
2022/03/08 01:45:34;;;;;;;;;;;17.60;99.90;;;;;;5039338;28;19925;-62
2022/03/08 01:48:01;;;;;;;;;;;17.60;99.90;;;;;;5044033;28;19929;-63
2022/03/08 01:50:29;;;;;;;;;;;17.60;99.90;;;;;;5037647;28;19932;-62
2022/03/08 01:52:56;;;;;;;;;;;17.60;99.90;;;;;;5045524;28;19928;-62
2022/03/08 01:55:25;;;;;;;;;;;17.60;99.90;;;;;;5038714;28;19947;-60
2022/03/08 01:57:52;;;;;;;;;;;17.60;99.90;;;;;;5031361;28;19925;-62
2022/03/08 02:00:30;;;;;;;;;;;17.50;99.90;;;;;;5029723;28;19929;-64
2022/03/08 02:03:00;;;;;;;;;;;17.60;99.90;;;;;;5029204;28;19952;-63
2022/03/08 02:05:28;;;;;;;;;;;17.50;99.90;;;;;;5036781;28;19928;-61
2022/03/08 02:07:55;;;;;;;;;;;17.60;99.90;;;;;;5046937;28;19935;-65
2022/03/08 02:10:23;;;;;;;;;;;17.50;99.90;;;;;;5028515;28;19925;-63
2022/03/08 02:16:45;;;;;;;;;;;17.50;99.90;;;;;;5042059;28;19917;-63
2022/03/08 02:19:14;;;;;;;;;;;17.50;99.90;;;;;;5041625;28;20290;-64
2022/03/08 02:21:42;;;;;;;;;;;17.50;99.90;;;;;;5036445;28;20388;-63
2022/03/08 02:24:09;;;;;;;;;;;17.50;99.90;;;;;;5027863;28;19936;-64
2022/03/08 02:26:37;;;;;;;;;;;17.40;99.90;;;;;;5040792;28;19940;-63
2022/03/08 02:29:06;;;;;;;;;;;17.40;99.90;;;;;;5027849;28;19929;-59
2022/03/08 02:31:33;;;;;;;;;;;17.40;99.90;;;;;;5032915;28;19939;-61
2022/03/08 02:34:00;;;;;;;;;;;17.40;99.90;;;;;;5033933;28;19933;-63
2022/03/08 02:36:27;;;;;;;;;;;17.40;99.90;;;;;;5034808;28;20434;-64
2022/03/08 02:38:55;;;;;;;;;;;17.50;99.90;;;;;;5042963;28;19929;-62
2022/03/08 02:41:22;;;;;;;;;;;17.50;99.90;;;;;;5026931;28;19952;-64
2022/03/08 02:43:49;;;;;;;;;;;17.50;99.90;;;;;;5028524;28;20324;-65
2022/03/08 02:46:16;;;;;;;;;;;17.50;99.90;;;;;;5036024;28;19932;-64
2022/03/08 02:48:44;;;;;;;;;;;17.50;99.90;;;;;;5030165;28;20361;-64
2022/03/08 02:51:11;;;;;;;;;;;17.50;99.90;;;;;;5045377;28;20356;-62
2022/03/08 02:53:38;;;;;;;;;;;17.40;99.90;;;;;;5039938;28;20688;-63
2022/03/08 02:56:05;;;;;;;;;;;17.40;99.90;;;;;;5038407;28;19929;-62
2022/03/08 02:58:32;;;;;;;;;;;17.50;99.90;;;;;;5033078;28;20404;-63
2022/03/08 03:01:00;;;;;;;;;;;17.50;99.90;;;;;;5044744;28;19929;-63
2022/03/08 03:03:27;;;;;;;;;;;17.50;99.90;;;;;;5031485;28;20009;-62
2022/03/08 03:05:54;;;;;;;;;;;17.40;99.90;;;;;;5043702;28;19929;-64
2022/03/08 03:08:22;;;;;;;;;;;17.50;99.90;;;;;;5027022;28;20365;-61
2022/03/08 03:10:49;;;;;;;;;;;17.50;99.90;;;;;;5031023;28;19928;-64
2022/03/08 03:13:16;;;;;;;;;;;17.40;99.90;;;;;;5032242;28;19925;-64
2022/03/08 03:15:43;;;;;;;;;;;17.40;99.90;;;;;;5030608;28;19929;-64
2022/03/08 03:18:11;;;;;;;;;;;17.40;99.90;;;;;;5036003;28;19936;-62
2022/03/08 03:20:38;;;;;;;;;;;17.40;99.90;;;;;;5038405;28;19940;-62
2022/03/08 03:23:05;;;;;;;;;;;17.40;99.90;;;;;;5033451;28;19929;-63
2022/03/08 03:25:32;;;;;;;;;;;17.30;99.90;;;;;;5040568;28;19932;-63
2022/03/08 03:27:59;;;;;;;;;;;17.20;99.90;;;;;;5029867;28;19929;-61
2022/03/08 03:30:26;;;;;;;;;;;17.30;99.90;;;;;;5037633;28;19988;-61
2022/03/08 03:32:54;;;;;;;;;;;17.20;99.90;;;;;;5040290;28;19929;-63
2022/03/08 03:35:21;;;;;;;;;;;17.20;99.90;;;;;;5034435;28;20448;-64
2022/03/08 03:37:48;;;;;;;;;;;17.20;99.90;;;;;;5030639;28;19997;-62
2022/03/08 03:40:16;;;;;;;;;;;17.20;99.90;;;;;;5042820;28;20349;-63
2022/03/08 03:42:43;;;;;;;;;;;17.10;99.90;;;;;;5063315;28;20346;-63
2022/03/08 03:45:11;;;;;;;;;;;17.10;99.90;;;;;;5031813;28;20533;-63
2022/03/08 03:47:39;;;;;;;;;;;17.10;99.90;;;;;;5030999;28;19940;-63
2022/03/08 03:50:06;;;;;;;;;;;17.10;99.90;;;;;;5031855;28;19929;-63
2022/03/08 03:52:33;;;;;;;;;;;17.10;99.90;;;;;;5048144;28;19935;-62
2022/03/08 03:55:01;;;;;;;;;;;17.10;99.90;;;;;;5044869;28;19936;-63
2022/03/08 03:57:28;;;;;;;;;;;17.10;99.90;;;;;;5035072;28;19940;-58
2022/03/08 03:59:55;;;;;;;;;;;17.10;99.90;;;;;;5042542;28;19929;-61
2022/03/08 04:02:22;;;;;;;;;;;17.10;99.90;;;;;;5041940;28;19925;-60
2022/03/08 04:04:50;;;;;;;;;;;17.10;99.90;;;;;;5046362;28;20292;-61
2022/03/08 04:07:17;;;;;;;;;;;17.20;99.90;;;;;;5041644;28;20212;-58
2022/03/08 04:09:44;;;;;;;;;;;17.20;99.90;;;;;;5065444;28;19929;-59
2022/03/08 04:12:11;;;;;;;;;;;17.20;99.90;;;;;;5036635;28;19932;-59
2022/03/08 04:14:39;;;;;;;;;;;17.20;99.90;;;;;;5039703;28;19929;-60
2022/03/08 04:17:06;;;;;;;;;;;17.10;99.90;;;;;;5049263;28;19996;-59
2022/03/08 04:19:33;;;;;;;;;;;17.10;99.90;;;;;;5044063;28;19929;-61
2022/03/08 04:22:00;;;;;;;;;;;17.00;99.90;;;;;;5055518;28;19929;-58
2022/03/08 04:24:27;;;;;;;;;;;17.00;99.90;;;;;;5054275;28;19936;-58
2022/03/08 04:26:54;;;;;;;;;;;17.00;99.90;;;;;;5045142;28;19929;-59
2022/03/08 04:29:22;;;;;;;;;;;17.00;99.90;;;;;;5031139;28;19936;-60
2022/03/08 04:31:49;;;;;;;;;;;16.90;99.90;;;;;;5034894;28;20423;-60
2022/03/08 04:34:16;;;;;;;;;;;16.70;99.90;;;;;;5031856;28;20388;-64
2022/03/08 04:36:43;;;;;;;;;;;16.60;99.90;;;;;;5045171;28;19924;-62
2022/03/08 04:39:10;;;;;;;;;;;16.70;98.70;;;;;;5039560;28;19929;-66
2022/03/08 04:41:38;;;;;;;;;;;16.70;98.70;;;;;;5040372;28;20304;-61
2022/03/08 04:44:05;;;;;;;;;;;16.70;99.30;;;;;;5031310;28;19929;-62
2022/03/08 04:46:33;;;;;;;;;;;16.70;99.50;;;;;;5043352;28;20434;-61
2022/03/08 04:49:00;;;;;;;;;;;16.80;99.70;;;;;;5035865;28;19936;-62
2022/03/08 04:51:27;;;;;;;;;;;16.80;99.90;;;;;;5045953;28;19929;-61
2022/03/08 04:53:54;;;;;;;;;;;16.90;99.90;;;;;;5064925;28;19983;-60
2022/03/08 04:56:21;;;;;;;;;;;16.90;99.90;;;;;;5046425;28;20400;-59
2022/03/08 04:58:48;;;;;;;;;;;17.00;99.90;;;;;;5047821;28;19932;-62
2022/03/08 05:01:20;;;;;;;;;;;17.10;99.90;;;;;;5041549;28;19929;-60
2022/03/08 05:03:49;;;;;;;;;;;17.30;99.90;;;;;;5040397;28;19932;-59
2022/03/08 05:06:17;;;;;;;;;;;17.50;99.90;;;;;;5040633;28;19932;-65
2022/03/08 05:08:44;;;;;;;;;;;17.60;99.90;;;;;;5045695;28;19979;-61
2022/03/08 05:11:11;;;;;;;;;;;17.70;99.90;;;;;;5046652;28;19932;-64
2022/03/08 05:13:38;;;;;;;;;;;17.80;99.90;;;;;;5034992;28;20277;-59
2022/03/08 05:16:05;;;;;;;;;;;17.90;99.90;;;;;;5048144;28;19928;-59
2022/03/08 05:18:33;;;;;;;;;;;18.10;99.90;;;;;;5045372;28;19957;-63
2022/03/08 05:21:00;;;;;;;;;;;18.20;99.90;;;;;;5047979;28;19936;-61
2022/03/08 05:23:27;;;;;;;;;;;18.30;99.80;;;;;;5034195;28;20390;-59
2022/03/08 05:25:54;;;;;;;;;;;18.40;99.80;;;;;;5045493;28;20263;-62
2022/03/08 05:28:22;;;;;;;;;;;18.50;99.60;;;;;;5044691;28;19929;-61
2022/03/08 05:30:50;;;;;;;;;;;18.60;99.60;;;;;;5034913;28;19933;-61
2022/03/08 05:33:18;;;;;;;;;;;18.70;99.60;;;;;;5046481;28;19925;-62
2022/03/08 05:35:45;;;;;;;;;;;18.90;99.60;;;;;;5046398;28;19935;-62
2022/03/08 05:38:12;;;;;;;;;;;19.10;99.40;;;;;;5040267;28;19929;-61
2022/03/08 05:40:43;;;;;;;;;;;19.20;99.20;;;;;;5037737;28;20312;-62
2022/03/08 05:43:11;;;;;;;;;;;19.30;99.10;;;;;;5047853;28;19928;-61
2022/03/08 05:45:38;;;;;;;;;;;19.50;99.00;;;;;;5048540;28;19925;-62
2022/03/08 05:48:05;;;;;;;;;;;19.60;98.80;;;;;;5048300;28;19929;-65
2022/03/08 05:50:32;;;;;;;;;;;19.70;98.70;;;;;;5041957;28;19925;-61
2022/03/08 05:52:59;;;;;;;;;;;19.90;98.70;;;;;;5042215;28;19933;-61
2022/03/08 05:55:26;;;;;;;;;;;20.00;98.60;;;;;;5033749;28;19925;-60
2022/03/08 05:57:53;;;;;;;;;;;20.10;98.40;;;;;;5028220;28;19929;-62
2022/03/08 06:00:21;;;;;;;;;;;20.20;98.50;;;;;;5040738;28;19951;-61
2022/03/08 06:02:48;;;;;;;;;;;20.30;98.20;;;;;;5036736;28;19936;-61
2022/03/08 06:05:15;;;;;;;;;;;20.30;98.20;;;;;;5045654;28;19940;-61
2022/03/08 06:07:42;;;;;;;;;;;20.30;98.10;;;;;;5045948;28;19948;-61
2022/03/08 06:10:10;;;;;;;;;;;20.40;98.20;;;;;;5043644;28;19955;-61
2022/03/08 06:12:37;;;;;;;;;;;20.40;98.10;;;;;;5047312;28;20308;-60
2022/03/08 06:15:04;;;;;;;;;;;20.40;98.10;;;;;;5045983;28;20307;-59
2022/03/08 06:17:32;;;;;;;;;;;20.40;98.00;;;;;;5048474;28;19939;-59
2022/03/08 06:19:59;;;;;;;;;;;20.40;98.00;;;;;;5049665;28;20731;-61
2022/03/08 06:22:26;;;;;;;;;;;20.50;98.10;;;;;;5043753;28;19925;-61
2022/03/08 06:24:54;;;;;;;;;;;20.50;98.00;;;;;;5042806;28;19925;-61
2022/03/08 06:27:21;;;;;;;;;;;20.50;98.00;;;;;;5046470;28;19939;-60
2022/03/08 06:29:51;;;;;;;;;;;20.60;97.90;;;;;;5046477;28;20019;-59
2022/03/08 06:32:19;;;;;;;;;;;20.60;97.80;;;;;;5048856;28;20035;-61
2022/03/08 06:34:46;;;;;;;;;;;20.60;97.80;;;;;;5044420;28;19931;-60
2022/03/08 06:37:13;;;;;;;;;;;20.70;97.70;;;;;;5044207;28;19925;-62
2022/03/08 06:39:41;;;;;;;;;;;20.70;97.70;;;;;;5044974;28;19952;-63
2022/03/08 06:42:08;;;;;;;;;;;20.70;97.60;;;;;;5025990;28;19929;-63
2022/03/08 06:44:38;;;;;;;;;;;20.70;97.60;;;;;;5060881;28;20400;-62
2022/03/08 06:47:07;;;;;;;;;;;20.70;97.60;;;;;;5048126;28;20079;-60
2022/03/08 06:49:36;;;;;;;;;;;20.60;97.60;;;;;;5045972;28;19928;-62
2022/03/08 06:52:07;;;;;;;;;;;20.60;97.70;;;;;;5042236;28;19936;-60
2022/03/08 06:54:35;;;;;;;;;;;20.60;97.90;;;;;;5034264;28;19936;-60
2022/03/08 06:57:02;;;;;;;;;;;20.50;97.90;;;;;;5074227;28;19925;-60
2022/03/08 06:59:30;;;;;;;;;;;20.50;98.00;;;;;;5034027;28;19929;-59
2022/03/08 07:01:57;;;;;;;;;;;20.50;98.10;;;;;;5030130;28;20336;-58
2022/03/08 07:04:24;;;;;;;;;;;20.40;98.30;;;;;;5029906;28;19935;-59
2022/03/08 07:06:54;;;;;;;;;;;20.40;98.60;;;;;;5035343;28;20301;-63
2022/03/08 07:09:22;;;;;;;;;;;20.30;98.40;;;;;;5045241;28;19936;-58
2022/03/08 07:11:49;;;;;;;;;;;20.30;98.40;;;;;;5041549;28;19929;-57
2022/03/08 07:14:17;;;;;;;;;;;20.20;98.50;;;;;;5040336;28;19926;-60
2022/03/08 07:16:45;;;;;;;;;;;20.20;98.40;;;;;;5050075;28;20301;-59
2022/03/08 07:19:13;;;;;;;;;;;20.20;98.60;;;;;;5035848;28;19928;-59
2022/03/08 07:21:41;;;;;;;;;;;20.10;98.70;;;;;;5033073;28;20157;-59
2022/03/08 07:24:08;;;;;;;;;;;20.00;98.60;;;;;;5043246;28;19924;-60
2022/03/08 07:26:35;;;;;;;;;;;20.00;98.70;;;;;;5042783;28;19929;-60
2022/03/08 07:29:03;;;;;;;;;;;19.90;98.80;;;;;;5043831;28;20285;-59
2022/03/08 07:31:30;;;;;;;;;;;19.90;98.90;;;;;;5044157;28;19932;-59
2022/03/08 07:33:59;;;;;;;;;;;19.90;98.70;;;;;;5044378;28;19929;-60
2022/03/08 07:36:26;;;;;;;;;;;19.90;98.60;;;;;;5044181;28;19924;-59
2022/03/08 07:38:54;;;;;;;;;;;20.00;98.50;;;;;;5042585;28;20308;-58
2022/03/08 07:41:22;;;;;;;;;;;20.10;98.40;;;;;;5035080;28;19929;-60
2022/03/08 07:43:49;;;;;;;;;;;20.20;98.20;;;;;;5041829;28;20422;-58
2022/03/08 07:46:16;;;;;;;;;;;20.30;98.00;;;;;;5040138;28;19926;-62
2022/03/08 07:48:44;;;;;;;;;;;20.40;97.90;;;;;;5046185;28;19932;-61
2022/03/08 07:51:31;;;;;;;;;;;20.50;97.90;;;;;;5044226;28;19940;-60
2022/03/08 07:53:59;;;;;;;;;;;20.70;97.70;;;;;;5044642;28;20114;-57
2022/03/08 07:56:26;;;;;;;;;;;20.80;97.60;;;;;;5041451;28;19932;-58
2022/03/08 07:58:55;;;;;;;;;;;20.90;97.40;;;;;;5042356;28;19925;-58
2022/03/08 08:01:23;;;;;;;;;;;20.90;97.30;;;;;;5037980;28;20566;-59
2022/03/08 08:03:50;;;;;;;;;;;20.90;97.30;;;;;;5036941;28;19929;-59
2022/03/08 08:06:19;;;;;;;;;;;20.90;97.40;;;;;;5033278;28;19936;-60
2022/03/08 08:08:46;;;;;;;;;;;20.90;97.20;;;;;;5027763;28;19932;-58
2022/03/08 08:11:13;;;;;;;;;;;21.00;97.20;;;;;;5037590;28;19947;-61
2022/03/08 08:13:41;;;;;;;;;;;21.00;97.20;;;;;;5036020;28;19933;-59
2022/03/08 08:16:08;;;;;;;;;;;21.00;97.20;;;;;;5041059;28;19925;-59
2022/03/08 08:18:35;;;;;;;;;;;21.10;97.10;;;;;;5044373;28;19932;-59
2022/03/08 08:21:04;;;;;;;;;;;21.20;97.00;;;;;;5045324;28;19925;-58
2022/03/08 08:23:32;;;;;;;;;;;21.30;97.00;;;;;;5027648;28;19936;-60
2022/03/08 08:25:59;;;;;;;;;;;21.30;97.00;;;;;;5041264;28;19943;-59
2022/03/08 08:28:26;;;;;;;;;;;21.30;96.90;;;;;;5053502;28;19959;-59
2022/03/08 08:30:58;;;;;;;;;;;21.40;96.80;;;;;;5043404;28;19933;-59
2022/03/08 08:33:26;;;;;;;;;;;21.40;96.80;;;;;;5042146;28;20288;-58
2022/03/08 08:35:55;;;;;;;;;;;21.40;96.90;;;;;;5030058;28;19925;-61
2022/03/08 08:38:22;;;;;;;;;;;21.40;96.90;;;;;;5040524;28;19952;-58
2022/03/08 08:40:49;;;;;;;;;;;21.40;96.90;;;;;;5035089;28;19929;-57
2022/03/08 08:43:17;;;;;;;;;;;21.40;96.80;;;;;;5044068;28;19925;-59
2022/03/08 08:45:44;;;;;;;;;;;21.40;96.90;;;;;;5053014;28;19924;-57
2022/03/08 08:48:11;;;;;;;;;;;21.40;97.00;;;;;;5057292;28;19928;-59
2022/03/08 08:50:38;;;;;;;;;;;21.40;97.00;;;;;;5056226;28;19925;-55
2022/03/08 08:53:05;;;;;;;;;;;21.50;96.90;;;;;;5052732;28;19929;-59
2022/03/08 08:55:34;;;;;;;;;;;21.50;96.60;;;;;;5042074;28;20009;-59
2022/03/08 08:58:02;;;;;;;;;;;21.60;96.70;;;;;;5049270;28;20364;-59
2022/03/08 09:00:29;;;;;;;;;;;21.40;97.10;;;;;;5051299;28;20293;-60
2022/03/08 09:02:57;;;;;;;;;;;21.20;96.60;;;;;;5041088;28;19944;-58
2022/03/08 09:05:24;;;;;;;;;;;21.10;96.90;;;;;;5048024;28;19943;-57
2022/03/08 09:07:52;;;;;;;;;;;21.20;97.50;;;;;;5039966;28;19928;-56
2022/03/08 09:10:22;;;;;;;;;;;21.20;97.70;;;;;;5048431;28;19936;-58
2022/03/08 09:12:51;;;;;;;;;;;21.20;98.00;;;;;;5048286;28;19931;-61
2022/03/08 09:15:19;;;;;;;;;;;21.30;98.00;;;;;;5046720;28;20316;-58
2022/03/08 09:17:46;;;;;;;;;;;21.30;97.80;;;;;;5052370;28;19924;-60
2022/03/08 09:20:14;;;;;;;;;;;21.30;97.70;;;;;;5042913;28;20392;-58
2022/03/08 09:22:47;;;;;;;;;;;21.30;97.70;;;;;;5041779;28;20269;-57
2022/03/08 09:25:15;;;;;;;;;;;21.30;97.60;;;;;;5034421;28;19929;-58
2022/03/08 09:27:42;;;;;;;;;;;21.40;97.40;;;;;;5038752;28;19933;-55
2022/03/08 09:30:09;;;;;;;;;;;21.50;97.30;;;;;;5045303;28;20316;-59
2022/03/08 09:32:36;;;;;;;;;;;21.50;97.60;;;;;;5049838;28;19936;-55
2022/03/08 09:35:04;;;;;;;;;;;21.50;97.60;;;;;;5044271;28;20027;-59
2022/03/08 09:37:31;;;;;;;;;;;21.60;97.50;;;;;;5044331;28;20296;-57
2022/03/08 09:40:00;;;;;;;;;;;21.60;96.40;;;;;;5049047;28;19941;-57
2022/03/08 09:42:29;;;;;;;;;;;21.20;93.20;;;;;;5030368;28;19928;-57
2022/03/08 09:44:57;;;;;;;;;;;20.90;93.10;;;;;;5056596;28;20262;-55
2022/03/08 09:47:24;;;;;;;;;;;20.80;91.20;;;;;;5049119;28;20416;-56
2022/03/08 09:49:51;;;;;;;;;;;20.80;91.50;;;;;;5035695;28;20574;-58
2022/03/08 09:52:19;;;;;;;;;;;20.90;91.50;;;;;;5034036;28;19929;-58
2022/03/08 09:54:46;;;;;;;;;;;20.80;90.20;;;;;;5050443;28;19938;-60
2022/03/08 09:57:27;;;;;;;;;;;20.70;85.00;;;;;;5043801;28;19925;-58
2022/03/08 09:59:54;;;;;;;;;;;20.40;80.90;;;;;;5048685;28;19933;-59
2022/03/08 10:02:25;;;;;;;;;;;20.20;78.10;;;;;;5046955;28;19955;-61
2022/03/08 10:05:06;;;;;;;;;;;20.00;76.10;;;;;;5042402;28;20328;-59
2022/03/08 10:07:35;;;;;;;;;;;19.80;74.50;;;;;;5037705;28;20194;-60
2022/03/08 10:10:03;;;;;;;;;;;19.90;73.70;;;;;;5047163;28;19929;-57
2022/03/08 10:12:56;;;;;;;;;;;20.10;75.20;;;;;;5046703;28;19933;-60
2022/03/08 10:15:24;;;;;;;;;;;20.30;77.80;;;;;;5050647;28;20304;-56
2022/03/08 10:17:51;;;;;;;;;;;20.50;79.90;;;;;;5036391;28;19967;-58
2022/03/08 10:20:32;;;;;;;;;;;20.60;81.20;;;;;;5048141;28;20301;-55
2022/03/08 10:23:00;;;;;;;;;;;20.70;82.20;;;;;;5043066;28;19932;-56
2022/03/08 10:25:29;;;;;;;;;;;20.80;83.50;;;;;;5041991;28;19929;-56
2022/03/08 10:27:56;;;;;;;;;;;20.90;86.00;;;;;;5044431;28;20456;-56
2022/03/08 10:30:25;;;;;;;;;;;21.00;88.70;;;;;;5044956;28;19925;-60
2022/03/08 10:33:05;;;;;;;;;;;21.10;88.50;;;;;;5047354;28;20068;-58
2022/03/08 10:35:37;;;;;;;;;;;21.30;88.90;;;;;;5044057;28;19935;-58
2022/03/08 10:38:05;;;;;;;;;;;21.40;89.40;;;;;;5036896;28;19928;-61
2022/03/08 10:40:33;;;;;;;;;;;21.50;90.30;;;;;;5047343;28;19935;-54
2022/03/08 10:43:01;;;;;;;;;;;21.60;90.50;;;;;;5049049;28;19929;-55
2022/03/08 10:45:29;;;;;;;;;;;21.60;90.40;;;;;;5045643;28;19925;-58
2022/03/08 10:47:56;;;;;;;;;;;21.80;90.40;;;;;;5045971;28;19929;-59
2022/03/08 10:50:25;;;;;;;;;;;21.80;90.40;;;;;;5044217;28;19960;-56
2022/03/08 10:52:54;;;;;;;;;;;21.90;90.50;;;;;;5042587;28;20409;-57
2022/03/08 10:55:33;;;;;;;;;;;21.90;90.50;;;;;;5037846;28;19929;-57
2022/03/08 10:58:10;;;;;;;;;;;21.90;90.50;;;;;;5030182;28;19936;-58
2022/03/08 11:00:39;;;;;;;;;;;22.00;90.50;;;;;;5049669;28;19929;-57
2022/03/08 11:03:33;;;;;;;;;;;22.00;90.60;;;;;;5033527;28;19940;-56
2022/03/08 11:06:05;;;;;;;;;;;22.00;90.70;;;;;;5036806;28;19929;-60
2022/03/08 11:08:34;;;;;;;;;;;22.10;90.10;;;;;;5041358;28;20729;-56
2022/03/08 11:11:01;;;;;;;;;;;22.10;89.10;;;;;;5044558;28;19933;-59
2022/03/08 11:13:29;;;;;;;;;;;22.10;89.10;;;;;;5039089;28;20392;-58
2022/03/08 11:15:56;;;;;;;;;;;22.00;89.60;;;;;;5072658;28;20443;-61
2022/03/08 11:18:24;;;;;;;;;;;22.10;90.10;;;;;;5030019;28;20339;-57
2022/03/08 11:20:58;;;;;;;;;;;22.10;90.90;;;;;;5041880;28;19928;-61
2022/03/08 11:23:26;;;;;;;;;;;22.30;90.90;;;;;;5046308;28;20376;-58
2022/03/08 11:25:54;;;;;;;;;;;22.20;91.00;;;;;;5039496;28;20308;-56
2022/03/08 11:28:21;;;;;;;;;;;22.20;91.10;;;;;;5010240;28;19943;-62
2022/03/08 11:30:51;;;;;;;;;;;22.20;91.40;;;;;;5034132;28;19939;-59
2022/03/08 11:33:21;;;;;;;;;;;22.10;91.20;;;;;;5029615;28;20312;-57
2022/03/08 11:35:52;;;;;;;;;;;21.90;90.70;;;;;;5030141;28;19933;-55
2022/03/08 11:38:19;;;;;;;;;;;21.80;90.70;;;;;;5046602;28;20420;-60
2022/03/08 11:40:54;;;;;;;;;;;21.70;90.70;;;;;;5043792;28;19924;-59
2022/03/08 11:43:36;;;;;;;;;;;21.70;90.80;;;;;;5032488;28;20297;-57
2022/03/08 11:46:20;;;;;;;;;;;21.70;90.90;;;;;;5035281;28;19942;-57
2022/03/08 11:48:57;;;;;;;;;;;21.70;90.80;;;;;;5045622;28;19925;-55
2022/03/08 11:51:26;;;;;;;;;;;21.80;90.90;;;;;;5046906;28;19936;-58
2022/03/08 11:54:03;;;;;;;;;;;21.80;90.80;;;;;;5064892;28;19936;-56
2022/03/08 11:56:42;;;;;;;;;;;21.80;90.80;;;;;;5033673;28;19936;-57
2022/03/08 11:59:10;;;;;;;;;;;21.90;91.10;;;;;;5061527;28;19929;-61
2022/03/08 12:01:38;;;;;;;;;;;21.90;91.10;;;;;;5034708;28;19936;-55
2022/03/08 12:04:10;;;;;;;;;;;21.90;91.00;;;;;;5033219;28;20404;-62
2022/03/08 12:06:39;;;;;;;;;;;22.00;91.30;;;;;;5038803;28;19929;-59
2022/03/08 12:09:13;;;;;;;;;;;22.10;91.40;;;;;;5074210;28;19928;-57
2022/03/08 12:11:42;;;;;;;;;;;22.10;91.40;;;;;;5070469;28;19929;-60
2022/03/08 12:14:20;;;;;;;;;;;22.10;91.40;;;;;;5031671;28;20421;-59
2022/03/08 12:16:49;;;;;;;;;;;22.20;91.70;;;;;;5037000;28;19925;-59
2022/03/08 12:19:36;;;;;;;;;;;22.30;91.30;;;;;;5045882;28;19925;-63
2022/03/08 12:22:07;;;;;;;;;;;22.20;90.70;;;;;;5040557;28;19924;-65
2022/03/08 12:24:39;;;;;;;;;;;22.10;91.00;;;;;;5047888;28;20446;-58
2022/03/08 12:27:08;;;;;;;;;;;22.30;91.00;;;;;;5041667;28;19933;-57
2022/03/08 12:29:55;;;;;;;;;;;22.10;91.20;;;;;;5048431;28;19936;-59
2022/03/08 12:32:23;;;;;;;;;;;22.00;91.60;;;;;;5047219;28;19925;-59
2022/03/08 12:34:52;;;;;;;;;;;21.80;91.80;;;;;;5048435;28;19999;-59
2022/03/08 12:37:46;;;;;;;;;;;21.80;91.90;;;;;;5060252;28;20381;-60
2022/03/08 12:40:15;;;;;;;;;;;21.70;92.20;;;;;;5058017;28;19925;-60
2022/03/08 12:42:44;;;;;;;;;;;21.70;90.00;;;;;;5086320;28;19936;-60
2022/03/08 12:45:25;;;;;;;;;;;21.60;90.30;;;;;;5052220;28;19933;-58
2022/03/08 12:47:58;;;;;;;;;;;21.50;90.40;;;;;;5051075;28;20005;-56
2022/03/08 12:50:29;;;;;;;;;;;21.40;90.80;;;;;;5046156;28;19948;-59
2022/03/08 12:53:00;;;;;;;;;;;21.40;91.00;;;;;;5047980;28;19929;-61
2022/03/08 12:55:29;;;;;;;;;;;21.30;91.10;;;;;;5039280;28;19929;-58
2022/03/08 12:58:01;;;;;;;;;;;21.30;90.90;;;;;;5036484;28;20420;-59
2022/03/08 13:00:39;;;;;;;;;;;21.30;91.00;;;;;;5048851;28;19925;-59
2022/03/08 13:03:10;;;;;;;;;;;21.30;91.20;;;;;;5049323;28;19940;-57
2022/03/08 13:05:42;;;;;;;;;;;21.30;91.50;;;;;;5049038;28;19946;-58
2022/03/08 13:08:12;;;;;;;;;;;21.30;91.70;;;;;;5049215;28;20334;-61
2022/03/08 13:10:44;;;;;;;;;;;21.30;91.90;;;;;;5044940;28;19975;-62
2022/03/08 13:13:31;;;;;;;;;;;21.10;92.00;;;;;;5045324;28;19925;-62
2022/03/08 13:15:59;;;;;;;;;;;21.10;92.40;;;;;;5046479;28;19925;-62
2022/03/08 13:18:28;;;;;;;;;;;21.10;92.60;;;;;;5045692;28;19928;-63
2022/03/08 13:20:56;;;;;;;;;;;21.10;92.70;;;;;;5047451;28;19940;-63
2022/03/08 13:23:25;;;;;;;;;;;21.10;92.80;;;;;;5044101;28;20486;-61
2022/03/08 13:25:54;;;;;;;;;;;21.00;93.00;;;;;;5038404;28;20327;-62
2022/03/08 13:28:22;;;;;;;;;;;21.20;93.10;;;;;;5048407;28;20295;-67
2022/03/08 13:30:50;;;;;;;;;;;21.30;93.20;;;;;;5043591;28;19935;-65
2022/03/08 13:33:17;;;;;;;;;;;21.50;93.10;;;;;;5041405;28;20324;-66
2022/03/08 13:35:46;;;;;;;;;;;21.70;93.00;;;;;;5046346;28;19932;-64
2022/03/08 13:38:17;;;;;;;;;;;21.90;92.90;;;;;;5047127;28;19925;-66
2022/03/08 13:40:45;;;;;;;;;;;22.10;92.80;;;;;;5048095;28;19933;-62
2022/03/08 13:43:12;;;;;;;;;;;22.20;92.80;;;;;;5045552;28;19955;-63
2022/03/08 13:46:01;;;;;;;;;;;22.30;92.70;;;;;;5035228;28;19936;-59
2022/03/08 13:48:29;;;;;;;;;;;22.40;92.70;;;;;;5039444;28;19943;-61
2022/03/08 13:51:01;;;;;;;;;;;22.40;92.70;;;;;;5046548;28;19925;-64
2022/03/08 13:53:30;;;;;;;;;;;22.40;92.70;;;;;;5055964;28;19931;-65
2022/03/08 13:55:57;;;;;;;;;;;22.40;92.60;;;;;;5044187;28;19932;-66
2022/03/08 13:58:30;;;;;;;;;;;22.50;92.60;;;;;;5042214;28;19940;-62
2022/03/08 14:00:57;;;;;;;;;;;22.50;92.50;;;;;;5041566;28;19940;-62
2022/03/08 14:03:26;;;;;;;;;;;22.50;92.50;;;;;;5043592;28;20230;-63
2022/03/08 14:05:55;;;;;;;;;;;22.40;92.70;;;;;;5044549;28;19925;-66
2022/03/08 14:08:33;;;;;;;;;;;22.30;92.80;;;;;;5046467;28;20665;-65
2022/03/08 14:11:02;;;;;;;;;;;22.20;93.00;;;;;;5042655;28;19933;-59
2022/03/08 14:13:31;;;;;;;;;;;22.00;93.20;;;;;;5043918;28;19936;-65
2022/03/08 14:16:03;;;;;;;;;;;21.80;93.40;;;;;;5043449;28;19933;-64
2022/03/08 14:18:31;;;;;;;;;;;21.70;93.60;;;;;;5043105;28;19933;-63
2022/03/08 14:21:00;;;;;;;;;;;21.70;93.70;;;;;;5040291;28;19981;-64
2022/03/08 14:23:39;;;;;;;;;;;21.70;93.70;;;;;;5040921;28;20028;-60
2022/03/08 14:26:07;;;;;;;;;;;21.60;93.90;;;;;;5038927;28;20399;-61
2022/03/08 14:28:40;;;;;;;;;;;21.60;94.00;;;;;;5040689;28;20274;-64
2022/03/08 14:31:18;;;;;;;;;;;21.50;93.90;;;;;;5042527;28;20307;-65